createdAt,value
2017-03-04T00:00:07.782Z,4.5
2017-03-04T00:00:26.419Z,4.4
2017-03-04T00:00:45.058Z,4.4
2017-03-04T00:01:03.721Z,4.4
2017-03-04T00:01:22.351Z,4.5
2017-03-04T00:01:40.986Z,4.5
2017-03-04T00:01:59.624Z,4.6
2017-03-04T00:02:18.269Z,4.6
2017-03-04T00:02:36.903Z,4.5
2017-03-04T00:02:55.536Z,4.4
2017-03-04T00:03:14.170Z,4.4
2017-03-04T00:03:32.802Z,4.4
2017-03-04T00:03:51.436Z,4.3
2017-03-04T00:04:10.077Z,4.3
2017-03-04T00:04:28.740Z,4.3
2017-03-04T00:04:47.379Z,4.3
2017-03-04T00:05:06.029Z,4.5
2017-03-04T00:05:24.665Z,4.5
2017-03-04T00:05:43.300Z,4.5
2017-03-04T00:06:01.940Z,4.4
2017-03-04T00:06:20.573Z,4.4
2017-03-04T00:06:39.204Z,4.3
2017-03-04T00:06:57.838Z,4.3
2017-03-04T00:07:16.484Z,4.2
2017-03-04T00:07:35.129Z,4.3
2017-03-04T00:07:53.791Z,4.3
2017-03-04T00:08:12.423Z,4.4
2017-03-04T00:08:31.074Z,4.4
2017-03-04T00:08:49.717Z,4.4
2017-03-04T00:09:08.354Z,4.4
2017-03-04T00:09:27.025Z,4.4
2017-03-04T00:09:45.656Z,4.4
2017-03-04T00:10:04.287Z,4.4
2017-03-04T00:10:22.922Z,4.4
2017-03-04T00:10:41.557Z,4.3
2017-03-04T00:11:00.195Z,4.3
2017-03-04T00:11:18.848Z,4.3
2017-03-04T00:11:37.492Z,4.3
2017-03-04T00:11:56.127Z,4.3
2017-03-04T00:12:14.763Z,4.2
2017-03-04T00:12:33.404Z,4.2
2017-03-04T00:12:52.084Z,4.1
2017-03-04T00:13:10.726Z,4.1
2017-03-04T00:13:29.364Z,4.1
2017-03-04T00:13:48.004Z,4.1
2017-03-04T00:14:06.638Z,4.2
2017-03-04T00:14:25.275Z,4.3
2017-03-04T00:14:43.918Z,4.3
2017-03-04T00:15:02.548Z,4.3
2017-03-04T00:15:21.182Z,4.3
2017-03-04T00:15:39.817Z,4.3
2017-03-04T00:15:58.460Z,4.2
2017-03-04T00:16:17.124Z,4.3
2017-03-04T00:16:35.765Z,4.2
2017-03-04T00:16:54.412Z,4.2
2017-03-04T00:17:13.047Z,4.2
2017-03-04T00:17:31.677Z,4.2
2017-03-04T00:17:50.313Z,4.2
2017-03-04T00:18:08.948Z,4.4
2017-03-04T00:18:27.581Z,4.4
2017-03-04T00:18:46.219Z,4.4
2017-03-04T00:19:04.848Z,4.4
2017-03-04T00:19:23.490Z,4.4
2017-03-04T00:19:42.132Z,4.4
2017-03-04T00:20:00.799Z,4.3
2017-03-04T00:20:19.440Z,4.2
2017-03-04T00:20:38.091Z,4.2
2017-03-04T00:20:56.744Z,4.2
2017-03-04T00:21:15.388Z,4.2
2017-03-04T00:21:34.023Z,4.2
2017-03-04T00:21:52.661Z,4.2
2017-03-04T00:22:11.298Z,4.2
2017-03-04T00:22:29.963Z,4.1
2017-03-04T00:22:48.625Z,4.1
2017-03-04T00:23:07.268Z,4
2017-03-04T00:23:25.901Z,3.9
2017-03-04T00:23:44.541Z,3.9
2017-03-04T00:24:03.171Z,3.8
2017-03-04T00:24:21.804Z,3.8
2017-03-04T00:24:40.440Z,3.8
2017-03-04T00:24:59.085Z,3.9
2017-03-04T00:25:17.733Z,4
2017-03-04T00:25:36.378Z,4
2017-03-04T00:25:55.014Z,4
2017-03-04T00:26:13.677Z,4
2017-03-04T00:26:32.308Z,4
2017-03-04T00:26:50.940Z,4
2017-03-04T00:27:09.580Z,3.9
2017-03-04T00:27:28.213Z,3.8
2017-03-04T00:27:46.864Z,3.8
2017-03-04T00:28:05.498Z,3.7
2017-03-04T00:28:24.136Z,3.7
2017-03-04T00:28:42.781Z,3.8
2017-03-04T00:29:01.442Z,3.8
2017-03-04T00:29:20.079Z,3.8
2017-03-04T00:29:38.744Z,3.8
2017-03-04T00:29:57.388Z,3.8
2017-03-04T00:30:16.020Z,3.8
2017-03-04T00:30:34.671Z,3.9
2017-03-04T00:30:53.301Z,4
2017-03-04T00:31:11.977Z,4
2017-03-04T00:31:30.610Z,4
2017-03-04T00:31:49.259Z,4
2017-03-04T00:32:07.892Z,4
2017-03-04T00:32:26.527Z,4.1
2017-03-04T00:32:45.163Z,4
2017-03-04T00:33:03.806Z,4
2017-03-04T00:33:22.442Z,4
2017-03-04T00:33:41.086Z,4.1
2017-03-04T00:33:59.731Z,4.1
2017-03-04T00:34:18.377Z,4.1
2017-03-04T00:34:37.041Z,4.1
2017-03-04T00:34:55.683Z,4.1
2017-03-04T00:35:14.319Z,4.2
2017-03-04T00:35:32.962Z,4.2
2017-03-04T00:35:51.622Z,4.1
2017-03-04T00:36:10.266Z,4.2
2017-03-04T00:36:28.907Z,4.2
2017-03-04T00:36:47.544Z,4.2
2017-03-04T00:37:06.184Z,4.2
2017-03-04T00:37:24.819Z,4.2
2017-03-04T00:37:43.479Z,4.2
2017-03-04T00:38:02.109Z,4.2
2017-03-04T00:38:20.748Z,4.2
2017-03-04T00:38:39.391Z,4.1
2017-03-04T00:38:58.022Z,4.1
2017-03-04T00:39:16.657Z,4
2017-03-04T00:39:35.297Z,4
2017-03-04T00:39:53.934Z,4
2017-03-04T00:40:12.568Z,4
2017-03-04T00:40:31.202Z,4
2017-03-04T00:40:49.842Z,4
2017-03-04T00:41:08.512Z,3.9
2017-03-04T00:41:27.147Z,3.9
2017-03-04T00:41:45.783Z,3.8
2017-03-04T00:42:04.417Z,3.8
2017-03-04T00:42:23.043Z,3.8
2017-03-04T00:42:41.675Z,3.8
2017-03-04T00:43:00.317Z,3.8
2017-03-04T00:43:18.952Z,3.8
2017-03-04T00:43:37.601Z,3.8
2017-03-04T00:43:56.232Z,3.7
2017-03-04T00:44:14.862Z,3.8
2017-03-04T00:44:33.537Z,3.8
2017-03-04T00:44:52.176Z,3.9
2017-03-04T00:45:10.810Z,4
2017-03-04T00:45:29.445Z,4.1
2017-03-04T00:45:48.074Z,4.1
2017-03-04T00:46:06.710Z,4.1
2017-03-04T00:46:25.377Z,4.1
2017-03-04T00:46:44.018Z,4
2017-03-04T00:47:02.656Z,3.9
2017-03-04T00:47:21.289Z,3.9
2017-03-04T00:47:39.931Z,3.8
2017-03-04T00:47:58.597Z,3.8
2017-03-04T00:48:17.238Z,3.8
2017-03-04T00:48:35.879Z,3.8
2017-03-04T00:48:54.520Z,3.8
2017-03-04T00:49:13.154Z,3.8
2017-03-04T00:49:31.793Z,3.8
2017-03-04T00:49:50.424Z,3.9
2017-03-04T00:50:09.059Z,3.9
2017-03-04T00:50:27.698Z,3.9
2017-03-04T00:50:46.352Z,3.9
2017-03-04T00:51:04.982Z,3.9
2017-03-04T00:51:23.640Z,3.9
2017-03-04T00:51:42.284Z,3.9
2017-03-04T00:52:00.917Z,3.9
2017-03-04T00:52:19.560Z,3.9
2017-03-04T00:52:38.193Z,3.9
2017-03-04T00:52:56.881Z,3.9
2017-03-04T00:53:15.520Z,3.9
2017-03-04T00:53:34.159Z,4
2017-03-04T00:53:52.806Z,3.9
2017-03-04T00:54:11.440Z,3.8
2017-03-04T00:54:30.083Z,3.7
2017-03-04T00:54:48.721Z,3.7
2017-03-04T00:55:07.362Z,3.7
2017-03-04T00:55:26.001Z,3.7
2017-03-04T00:55:44.637Z,3.8
2017-03-04T00:56:03.281Z,3.8
2017-03-04T00:56:21.943Z,3.9
2017-03-04T00:56:40.580Z,4
2017-03-04T00:56:59.244Z,4.1
2017-03-04T00:57:17.889Z,4.1
2017-03-04T00:57:36.526Z,4.2
2017-03-04T00:57:55.157Z,4.2
2017-03-04T00:58:13.794Z,4.1
2017-03-04T00:58:32.423Z,4.1
2017-03-04T00:58:51.067Z,4
2017-03-04T00:59:09.708Z,4
2017-03-04T00:59:28.378Z,4
2017-03-04T00:59:47.011Z,4
2017-03-04T01:00:05.641Z,4
2017-03-04T01:00:24.275Z,4.1
2017-03-04T01:00:42.921Z,4.3
2017-03-04T01:01:01.559Z,4.4
2017-03-04T01:01:20.196Z,4.4
2017-03-04T01:01:38.832Z,4.4
2017-03-04T01:01:57.471Z,4.3
2017-03-04T01:02:16.110Z,4.4
2017-03-04T01:02:34.754Z,4.3
2017-03-04T01:02:53.419Z,4.3
2017-03-04T01:03:12.050Z,4.4
2017-03-04T01:03:30.683Z,4.4
2017-03-04T01:03:49.317Z,4.4
2017-03-04T01:04:07.947Z,4.4
2017-03-04T01:04:26.581Z,4.4
2017-03-04T01:04:45.215Z,4.4
2017-03-04T01:05:03.848Z,4.4
2017-03-04T01:05:22.488Z,4.3
2017-03-04T01:05:41.122Z,4.3
2017-03-04T01:05:59.760Z,4.3
2017-03-04T01:06:18.442Z,4.2
2017-03-04T01:06:37.080Z,4.2
2017-03-04T01:06:55.725Z,4.2
2017-03-04T01:07:14.360Z,4.1
2017-03-04T01:07:33.026Z,4
2017-03-04T01:07:51.663Z,4
2017-03-04T01:08:10.300Z,4
2017-03-04T01:08:28.938Z,4
2017-03-04T01:08:47.578Z,4.1
2017-03-04T01:09:06.211Z,4.1
2017-03-04T01:09:24.847Z,4.1
2017-03-04T01:09:43.509Z,4
2017-03-04T01:10:02.149Z,4
2017-03-04T01:10:20.788Z,4
2017-03-04T01:10:39.430Z,4
2017-03-04T01:10:58.062Z,4
2017-03-04T01:11:16.698Z,3.9
2017-03-04T01:11:35.342Z,3.9
2017-03-04T01:11:53.977Z,3.8
2017-03-04T01:12:12.610Z,3.8
2017-03-04T01:12:31.248Z,3.7
2017-03-04T01:12:49.896Z,3.7
2017-03-04T01:13:08.562Z,3.8
2017-03-04T01:13:27.192Z,3.8
2017-03-04T01:13:45.824Z,3.8
2017-03-04T01:14:04.456Z,3.7
2017-03-04T01:14:23.088Z,3.7
2017-03-04T01:14:41.732Z,3.7
2017-03-04T01:15:00.387Z,3.7
2017-03-04T01:15:19.048Z,3.8
2017-03-04T01:15:37.684Z,3.9
2017-03-04T01:15:56.328Z,4
2017-03-04T01:16:14.955Z,4
2017-03-04T01:16:33.590Z,3.9
2017-03-04T01:16:52.225Z,3.9
2017-03-04T01:17:10.860Z,3.8
2017-03-04T01:17:29.496Z,3.8
2017-03-04T01:17:48.133Z,3.7
2017-03-04T01:18:06.810Z,3.8
2017-03-04T01:18:25.445Z,3.8
2017-03-04T01:18:44.089Z,3.8
2017-03-04T01:19:02.728Z,3.9
2017-03-04T01:19:21.363Z,4
2017-03-04T01:19:39.996Z,4
2017-03-04T01:19:58.635Z,4.1
2017-03-04T01:20:17.270Z,4.2
2017-03-04T01:20:35.905Z,4.2
2017-03-04T01:20:54.538Z,4.3
2017-03-04T01:21:13.182Z,4.3
2017-03-04T01:21:31.847Z,4.3
2017-03-04T01:21:50.477Z,4.3
2017-03-04T01:22:09.124Z,4.2
2017-03-04T01:22:27.752Z,4.2
2017-03-04T01:22:46.393Z,4.1
2017-03-04T01:23:05.027Z,4.2
2017-03-04T01:23:23.687Z,4.2
2017-03-04T01:23:42.316Z,4.2
2017-03-04T01:24:00.949Z,4.1
2017-03-04T01:24:19.582Z,4.1
2017-03-04T01:24:38.234Z,4.1
2017-03-04T01:24:56.878Z,4.1
2017-03-04T01:25:15.521Z,4
2017-03-04T01:25:34.170Z,3.9
2017-03-04T01:25:52.802Z,3.9
2017-03-04T01:26:11.439Z,3.9
2017-03-04T01:26:30.076Z,4
2017-03-04T01:26:48.725Z,4
2017-03-04T01:27:07.365Z,4
2017-03-04T01:27:25.999Z,4.1
2017-03-04T01:27:44.639Z,4
2017-03-04T01:28:03.301Z,4
2017-03-04T01:28:21.949Z,4
2017-03-04T01:28:40.594Z,3.9
2017-03-04T01:28:59.224Z,3.9
2017-03-04T01:29:17.861Z,3.9
2017-03-04T01:29:36.500Z,3.9
2017-03-04T01:29:55.145Z,3.8
2017-03-04T01:30:13.791Z,3.8
2017-03-04T01:30:32.426Z,3.9
2017-03-04T01:30:51.062Z,4.1
2017-03-04T01:31:09.697Z,4.2
2017-03-04T01:31:28.358Z,4.4
2017-03-04T01:31:47.001Z,4.4
2017-03-04T01:32:05.642Z,4.5
2017-03-04T01:32:24.283Z,4.5
2017-03-04T01:32:42.932Z,4.5
2017-03-04T01:33:01.576Z,4.4
2017-03-04T01:33:20.209Z,4.4
2017-03-04T01:33:38.841Z,4.2
2017-03-04T01:33:57.478Z,4.1
2017-03-04T01:34:16.111Z,3.9
2017-03-04T01:34:34.743Z,3.8
2017-03-04T01:34:53.406Z,3.7
2017-03-04T01:35:12.043Z,3.7
2017-03-04T01:35:30.681Z,3.7
2017-03-04T01:35:49.323Z,3.7
2017-03-04T01:36:07.957Z,3.7
2017-03-04T01:36:26.595Z,3.7
2017-03-04T01:36:45.234Z,3.7
2017-03-04T01:37:03.869Z,3.7
2017-03-04T01:37:22.496Z,3.6
2017-03-04T01:37:41.127Z,3.6
2017-03-04T01:37:59.759Z,3.5
2017-03-04T01:38:18.426Z,3.5
2017-03-04T01:38:37.087Z,3.5
2017-03-04T01:38:55.739Z,3.4
2017-03-04T01:39:14.405Z,3.4
2017-03-04T01:39:33.055Z,3.4
2017-03-04T01:39:51.732Z,3.4
2017-03-04T01:40:10.374Z,3.4
2017-03-04T01:40:29.008Z,3.4
2017-03-04T01:40:47.644Z,3.4
2017-03-04T01:41:06.281Z,3.4
2017-03-04T01:41:24.917Z,3.3
2017-03-04T01:41:43.548Z,3.4
2017-03-04T01:42:02.178Z,3.3
2017-03-04T01:42:20.813Z,3.3
2017-03-04T01:42:39.447Z,3.2
2017-03-04T01:42:58.096Z,3.3
2017-03-04T01:43:16.749Z,3.3
2017-03-04T01:43:35.382Z,3.4
2017-03-04T01:43:54.021Z,3.4
2017-03-04T01:44:12.666Z,3.5
2017-03-04T01:44:31.324Z,3.5
2017-03-04T01:44:49.974Z,3.6
2017-03-04T01:45:08.617Z,3.6
2017-03-04T01:45:27.276Z,3.6
2017-03-04T01:45:45.925Z,3.5
2017-03-04T01:46:04.560Z,3.5
2017-03-04T01:46:23.227Z,3.4
2017-03-04T01:46:41.861Z,3.4
2017-03-04T01:47:00.499Z,3.3
2017-03-04T01:47:19.133Z,3.3
2017-03-04T01:47:37.767Z,3.3
2017-03-04T01:47:56.406Z,3.3
2017-03-04T01:48:15.046Z,3.3
2017-03-04T01:48:33.680Z,3.3
2017-03-04T01:48:52.313Z,3.3
2017-03-04T01:49:10.953Z,3.3
2017-03-04T01:49:29.590Z,3.3
2017-03-04T01:49:48.276Z,3.4
2017-03-04T01:50:06.920Z,3.4
2017-03-04T01:50:25.563Z,3.3
2017-03-04T01:50:44.193Z,3.2
2017-03-04T01:51:02.831Z,3.2
2017-03-04T01:51:21.463Z,3.2
2017-03-04T01:51:40.106Z,3.2
2017-03-04T01:51:58.737Z,3.2
2017-03-04T01:52:17.374Z,3.2
2017-03-04T01:52:36.011Z,3.3
2017-03-04T01:52:54.647Z,3.4
2017-03-04T01:53:13.315Z,3.4
2017-03-04T01:53:31.961Z,3.4
2017-03-04T01:53:50.612Z,3.5
2017-03-04T01:54:09.251Z,3.4
2017-03-04T01:54:27.882Z,3.4
2017-03-04T01:54:46.513Z,3.4
2017-03-04T01:55:05.163Z,3.3
2017-03-04T01:55:23.820Z,3.3
2017-03-04T01:55:42.454Z,3.2
2017-03-04T01:56:01.096Z,3.2
2017-03-04T01:56:19.730Z,3.1
2017-03-04T01:56:38.388Z,3.1
2017-03-04T01:56:57.025Z,3.1
2017-03-04T01:57:15.686Z,3.1
2017-03-04T01:57:34.328Z,3.1
2017-03-04T01:57:52.954Z,3.1
2017-03-04T01:58:11.632Z,3.1
2017-03-04T01:58:30.268Z,3.1
2017-03-04T01:58:48.911Z,3.3
2017-03-04T01:59:07.543Z,3.3
2017-03-04T01:59:26.177Z,3.2
2017-03-04T01:59:44.820Z,3.2
2017-03-04T02:00:03.459Z,3.2
2017-03-04T02:00:22.133Z,3.1
2017-03-04T02:00:40.778Z,3.1
2017-03-04T02:00:59.428Z,3.1
2017-03-04T02:01:18.080Z,3.1
2017-03-04T02:01:36.723Z,3
2017-03-04T02:01:55.356Z,3
2017-03-04T02:02:13.988Z,2.9
2017-03-04T02:02:32.627Z,3
2017-03-04T02:02:51.264Z,3
2017-03-04T02:03:09.908Z,3
2017-03-04T02:03:28.537Z,3
2017-03-04T02:03:47.186Z,3
2017-03-04T02:04:05.834Z,3
2017-03-04T02:04:24.472Z,2.9
2017-03-04T02:04:43.136Z,2.9
2017-03-04T02:05:01.771Z,2.8
2017-03-04T02:05:20.418Z,2.9
2017-03-04T02:05:39.060Z,3
2017-03-04T02:05:57.691Z,3.1
2017-03-04T02:06:16.329Z,3.1
2017-03-04T02:06:34.966Z,3.1
2017-03-04T02:06:53.601Z,3.3
2017-03-04T02:07:12.244Z,3.5
2017-03-04T02:07:30.877Z,3.4
2017-03-04T02:07:49.522Z,3.5
2017-03-04T02:08:08.187Z,3.4
2017-03-04T02:08:26.834Z,3.4
2017-03-04T02:08:45.489Z,3.4
2017-03-04T02:09:04.152Z,3.3
2017-03-04T02:09:22.802Z,3.2
2017-03-04T02:09:41.453Z,3.2
2017-03-04T02:10:00.089Z,3.2
2017-03-04T02:10:18.725Z,3.2
2017-03-04T02:10:37.364Z,3.3
2017-03-04T02:10:56.010Z,3.3
2017-03-04T02:11:14.643Z,3.4
2017-03-04T02:11:33.304Z,3.4
2017-03-04T02:11:51.938Z,3.4
2017-03-04T02:12:10.575Z,3.4
2017-03-04T02:12:29.210Z,3.4
2017-03-04T02:12:47.849Z,3.4
2017-03-04T02:13:06.497Z,3.4
2017-03-04T02:13:25.131Z,3.6
2017-03-04T02:13:43.777Z,3.6
2017-03-04T02:14:02.418Z,3.5
2017-03-04T02:14:21.055Z,3.5
2017-03-04T02:14:39.693Z,3.5
2017-03-04T02:14:58.348Z,3.5
2017-03-04T02:15:16.977Z,3.4
2017-03-04T02:15:35.619Z,3.3
2017-03-04T02:15:54.253Z,3.3
2017-03-04T02:16:12.898Z,3.2
2017-03-04T02:16:31.567Z,3.2
2017-03-04T02:16:50.210Z,3.2
2017-03-04T02:17:08.850Z,3.2
2017-03-04T02:17:27.482Z,3.2
2017-03-04T02:17:46.124Z,3.2
2017-03-04T02:18:04.757Z,3.2
2017-03-04T02:18:23.390Z,3.2
2017-03-04T02:18:42.020Z,3.3
2017-03-04T02:19:00.658Z,3.3
2017-03-04T02:19:19.298Z,3.3
2017-03-04T02:19:37.981Z,3.3
2017-03-04T02:19:56.643Z,3.3
2017-03-04T02:20:15.289Z,3.3
2017-03-04T02:20:33.936Z,3.4
2017-03-04T02:20:52.569Z,3.3
2017-03-04T02:21:11.206Z,3.3
2017-03-04T02:21:29.868Z,3.3
2017-03-04T02:21:48.516Z,3.3
2017-03-04T02:22:07.156Z,3.2
2017-03-04T02:22:25.788Z,3.2
2017-03-04T02:22:44.419Z,3.2
2017-03-04T02:23:03.087Z,3.2
2017-03-04T02:23:21.739Z,3.2
2017-03-04T02:23:40.374Z,3.2
2017-03-04T02:23:59.007Z,3.2
2017-03-04T02:24:17.661Z,3.1
2017-03-04T02:24:36.295Z,3.1
2017-03-04T02:24:54.931Z,3.1
2017-03-04T02:25:13.571Z,3.1
2017-03-04T02:25:32.225Z,3.1
2017-03-04T02:25:50.864Z,3.1
2017-03-04T02:26:09.502Z,3
2017-03-04T02:26:28.168Z,3
2017-03-04T02:26:46.805Z,3
2017-03-04T02:27:05.438Z,3
2017-03-04T02:27:24.069Z,3.1
2017-03-04T02:27:42.701Z,3.1
2017-03-04T02:28:01.333Z,3.1
2017-03-04T02:28:19.966Z,3.1
2017-03-04T02:28:38.604Z,3.1
2017-03-04T02:28:57.241Z,3.1
2017-03-04T02:29:15.879Z,3.1
2017-03-04T02:29:34.515Z,3.1
2017-03-04T02:29:53.176Z,3.1
2017-03-04T02:30:11.826Z,3.1
2017-03-04T02:30:30.458Z,3.1
2017-03-04T02:30:49.102Z,3
2017-03-04T02:31:07.736Z,3
2017-03-04T02:31:26.369Z,2.9
2017-03-04T02:31:45.022Z,2.9
2017-03-04T02:32:03.696Z,2.9
2017-03-04T02:32:22.336Z,3
2017-03-04T02:32:40.980Z,3
2017-03-04T02:32:59.617Z,3
2017-03-04T02:33:18.261Z,3
2017-03-04T02:33:36.897Z,3
2017-03-04T02:33:55.532Z,3.2
2017-03-04T02:34:14.170Z,3.2
2017-03-04T02:34:32.809Z,3.2
2017-03-04T02:34:51.477Z,3.1
2017-03-04T02:35:10.113Z,3.1
2017-03-04T02:35:28.748Z,3.1
2017-03-04T02:35:47.379Z,3.1
2017-03-04T02:36:06.019Z,3.1
2017-03-04T02:36:24.652Z,3.1
2017-03-04T02:36:43.292Z,3.1
2017-03-04T02:37:01.927Z,3.1
2017-03-04T02:37:20.584Z,3.1
2017-03-04T02:37:39.220Z,3.1
2017-03-04T02:37:57.877Z,3
2017-03-04T02:38:16.526Z,3
2017-03-04T02:38:35.163Z,2.9
2017-03-04T02:38:53.793Z,2.9
2017-03-04T02:39:12.431Z,2.9
2017-03-04T02:39:31.077Z,2.8
2017-03-04T02:39:49.713Z,2.9
2017-03-04T02:40:08.373Z,2.9
2017-03-04T02:40:27.013Z,3
2017-03-04T02:40:45.651Z,3
2017-03-04T02:41:04.287Z,2.9
2017-03-04T02:41:22.945Z,2.9
2017-03-04T02:41:41.577Z,2.9
2017-03-04T02:42:00.214Z,2.9
2017-03-04T02:42:18.857Z,2.8
2017-03-04T02:42:37.524Z,2.7
2017-03-04T02:42:56.163Z,2.7
2017-03-04T02:43:14.798Z,2.6
2017-03-04T02:43:33.440Z,2.6
2017-03-04T02:43:52.091Z,2.6
2017-03-04T02:44:10.725Z,2.6
2017-03-04T02:44:29.367Z,2.5
2017-03-04T02:44:48.029Z,2.5
2017-03-04T02:45:06.670Z,2.5
2017-03-04T02:45:25.305Z,2.5
2017-03-04T02:45:43.962Z,2.5
2017-03-04T02:46:02.606Z,2.5
2017-03-04T02:46:21.257Z,2.5
2017-03-04T02:46:39.894Z,2.5
2017-03-04T02:46:58.529Z,2.5
2017-03-04T02:47:17.171Z,2.5
2017-03-04T02:47:35.804Z,2.5
2017-03-04T02:47:54.450Z,2.5
2017-03-04T02:48:13.115Z,2.5
2017-03-04T02:48:31.751Z,2.5
2017-03-04T02:48:50.391Z,2.5
2017-03-04T02:49:09.023Z,2.5
2017-03-04T02:49:27.659Z,2.5
2017-03-04T02:49:46.291Z,2.6
2017-03-04T02:50:04.926Z,2.6
2017-03-04T02:50:23.565Z,2.7
2017-03-04T02:50:42.193Z,2.8
2017-03-04T02:51:00.827Z,2.8
2017-03-04T02:51:19.472Z,2.8
2017-03-04T02:51:38.149Z,2.8
2017-03-04T02:51:56.789Z,2.8
2017-03-04T02:52:15.429Z,2.8
2017-03-04T02:52:34.068Z,2.8
2017-03-04T02:52:52.707Z,2.7
2017-03-04T02:53:11.411Z,2.7
2017-03-04T02:53:30.045Z,2.7
2017-03-04T02:53:48.685Z,2.7
2017-03-04T02:54:07.326Z,2.7
2017-03-04T02:54:25.971Z,2.6
2017-03-04T02:54:44.622Z,2.6
2017-03-04T02:55:03.262Z,2.6
2017-03-04T02:55:21.895Z,2.6
2017-03-04T02:55:40.535Z,2.6
2017-03-04T02:55:59.173Z,2.7
2017-03-04T02:56:17.822Z,2.7
2017-03-04T02:56:36.472Z,2.7
2017-03-04T02:56:55.111Z,2.7
2017-03-04T02:57:13.741Z,2.7
2017-03-04T02:57:32.385Z,2.7
2017-03-04T02:57:51.019Z,2.7
2017-03-04T02:58:09.662Z,2.7
2017-03-04T02:58:28.304Z,2.6
2017-03-04T02:58:46.946Z,2.5
2017-03-04T02:59:05.590Z,2.5
2017-03-04T02:59:24.227Z,2.5
2017-03-04T02:59:42.886Z,2.5
2017-03-04T03:00:01.531Z,2.5
2017-03-04T03:00:20.162Z,2.5
2017-03-04T03:00:38.797Z,2.5
2017-03-04T03:00:57.431Z,2.5
2017-03-04T03:01:16.066Z,2.5
2017-03-04T03:01:34.699Z,2.4
2017-03-04T03:01:53.339Z,2.4
2017-03-04T03:02:11.982Z,2.4
2017-03-04T03:02:30.646Z,2.4
2017-03-04T03:02:49.285Z,2.4
2017-03-04T03:03:07.943Z,2.4
2017-03-04T03:03:26.579Z,2.4
2017-03-04T03:03:45.234Z,2.4
2017-03-04T03:04:03.868Z,2.4
2017-03-04T03:04:22.502Z,2.4
2017-03-04T03:04:41.147Z,2.4
2017-03-04T03:04:59.780Z,2.5
2017-03-04T03:05:18.419Z,2.5
2017-03-04T03:05:37.067Z,2.5
2017-03-04T03:05:55.706Z,2.5
2017-03-04T03:06:14.349Z,2.5
2017-03-04T03:06:33.011Z,2.5
2017-03-04T03:06:51.645Z,2.6
2017-03-04T03:07:10.291Z,2.6
2017-03-04T03:07:28.926Z,2.5
2017-03-04T03:07:47.569Z,2.5
2017-03-04T03:08:06.205Z,2.5
2017-03-04T03:08:24.855Z,2.5
2017-03-04T03:08:43.505Z,2.5
2017-03-04T03:09:02.158Z,2.5
2017-03-04T03:09:20.790Z,2.5
2017-03-04T03:09:39.423Z,2.5
2017-03-04T03:09:58.088Z,2.5
2017-03-04T03:10:16.725Z,2.5
2017-03-04T03:10:35.386Z,2.6
2017-03-04T03:10:54.035Z,2.7
2017-03-04T03:11:12.671Z,2.7
2017-03-04T03:11:31.342Z,2.7
2017-03-04T03:11:49.979Z,2.7
2017-03-04T03:12:08.614Z,2.7
2017-03-04T03:12:27.257Z,2.7
2017-03-04T03:12:45.891Z,2.8
2017-03-04T03:13:04.533Z,2.9
2017-03-04T03:13:23.182Z,2.9
2017-03-04T03:13:41.814Z,2.9
2017-03-04T03:14:00.454Z,2.9
2017-03-04T03:14:19.121Z,2.9
2017-03-04T03:14:37.773Z,2.9
2017-03-04T03:14:56.415Z,2.9
2017-03-04T03:15:15.059Z,2.9
2017-03-04T03:15:33.691Z,2.9
2017-03-04T03:15:52.325Z,2.9
2017-03-04T03:16:10.960Z,2.9
2017-03-04T03:16:29.591Z,2.9
2017-03-04T03:16:48.257Z,2.9
2017-03-04T03:17:06.906Z,2.9
2017-03-04T03:17:25.545Z,2.9
2017-03-04T03:17:44.182Z,2.9
2017-03-04T03:18:02.843Z,2.9
2017-03-04T03:18:21.477Z,2.8
2017-03-04T03:18:40.111Z,2.8
2017-03-04T03:18:58.749Z,2.8
2017-03-04T03:19:17.385Z,2.8
2017-03-04T03:19:36.031Z,2.8
2017-03-04T03:19:54.663Z,2.8
2017-03-04T03:20:13.310Z,2.8
2017-03-04T03:20:31.943Z,2.8
2017-03-04T03:20:50.579Z,2.7
2017-03-04T03:21:09.214Z,2.7
2017-03-04T03:21:27.874Z,2.6
2017-03-04T03:21:46.520Z,2.6
2017-03-04T03:22:05.153Z,2.5
2017-03-04T03:22:23.799Z,2.5
2017-03-04T03:22:42.440Z,2.5
2017-03-04T03:23:01.075Z,2.6
2017-03-04T03:23:19.719Z,2.6
2017-03-04T03:23:38.362Z,2.6
2017-03-04T03:23:56.996Z,2.6
2017-03-04T03:24:15.641Z,2.6
2017-03-04T03:24:34.278Z,2.6
2017-03-04T03:24:52.941Z,2.5
2017-03-04T03:25:11.607Z,2.5
2017-03-04T03:25:30.236Z,2.5
2017-03-04T03:25:48.870Z,2.4
2017-03-04T03:26:07.506Z,2.4
2017-03-04T03:26:26.141Z,2.4
2017-03-04T03:26:44.777Z,2.4
2017-03-04T03:27:03.433Z,2.6
2017-03-04T03:27:22.086Z,2.6
2017-03-04T03:27:40.718Z,2.6
2017-03-04T03:27:59.357Z,2.6
2017-03-04T03:28:18.016Z,2.6
2017-03-04T03:28:36.662Z,2.5
2017-03-04T03:28:55.305Z,2.5
2017-03-04T03:29:13.943Z,2.4
2017-03-04T03:29:32.579Z,2.4
2017-03-04T03:29:51.257Z,2.4
2017-03-04T03:30:09.911Z,2.4
2017-03-04T03:30:28.557Z,2.3
2017-03-04T03:30:47.188Z,2.3
2017-03-04T03:31:05.821Z,2.3
2017-03-04T03:31:24.451Z,2.2
2017-03-04T03:31:43.083Z,2.2
2017-03-04T03:32:01.715Z,2.2
2017-03-04T03:32:20.354Z,2.2
2017-03-04T03:32:38.990Z,2.2
2017-03-04T03:32:57.642Z,2.2
2017-03-04T03:33:16.295Z,2.1
2017-03-04T03:33:34.929Z,2.1
2017-03-04T03:33:53.564Z,2.1
2017-03-04T03:34:12.203Z,2.2
2017-03-04T03:34:30.839Z,2.2
2017-03-04T03:34:49.472Z,2.3
2017-03-04T03:35:08.107Z,2.2
2017-03-04T03:35:26.750Z,2.2
2017-03-04T03:35:45.382Z,2.2
2017-03-04T03:36:04.029Z,2.3
2017-03-04T03:36:22.685Z,2.4
2017-03-04T03:36:41.324Z,2.4
2017-03-04T03:36:59.955Z,2.5
2017-03-04T03:37:18.586Z,2.5
2017-03-04T03:37:37.226Z,2.4
2017-03-04T03:37:55.864Z,2.4
2017-03-04T03:38:14.496Z,2.3
2017-03-04T03:38:33.142Z,2.3
2017-03-04T03:38:51.779Z,2.3
2017-03-04T03:39:10.426Z,2.2
2017-03-04T03:39:29.062Z,2.2
2017-03-04T03:39:47.728Z,2.2
2017-03-04T03:40:06.364Z,2.2
2017-03-04T03:40:25.015Z,2.2
2017-03-04T03:40:43.665Z,2.2
2017-03-04T03:41:02.299Z,2.2
2017-03-04T03:41:20.929Z,2.3
2017-03-04T03:41:39.563Z,2.4
2017-03-04T03:41:58.212Z,2.4
2017-03-04T03:42:16.852Z,2.4
2017-03-04T03:42:35.500Z,2.4
2017-03-04T03:42:54.159Z,2.4
2017-03-04T03:43:12.823Z,2.4
2017-03-04T03:43:31.460Z,2.4
2017-03-04T03:43:50.104Z,2.4
2017-03-04T03:44:08.752Z,2.4
2017-03-04T03:44:27.401Z,2.4
2017-03-04T03:44:46.049Z,2.4
2017-03-04T03:45:04.687Z,2.4
2017-03-04T03:45:23.327Z,2.5
2017-03-04T03:45:41.961Z,2.5
2017-03-04T03:46:00.595Z,2.5
2017-03-04T03:46:19.230Z,2.5
2017-03-04T03:46:37.901Z,2.5
2017-03-04T03:46:56.558Z,2.5
2017-03-04T03:47:15.193Z,2.6
2017-03-04T03:47:33.843Z,2.6
2017-03-04T03:47:52.485Z,2.7
2017-03-04T03:48:11.171Z,2.7
2017-03-04T03:48:29.802Z,2.7
2017-03-04T03:48:48.437Z,2.7
2017-03-04T03:49:07.075Z,2.8
2017-03-04T03:49:25.719Z,2.8
2017-03-04T03:49:44.350Z,2.8
2017-03-04T03:50:03.000Z,2.7
2017-03-04T03:50:21.643Z,2.7
2017-03-04T03:50:40.288Z,2.7
2017-03-04T03:50:58.932Z,2.6
2017-03-04T03:51:17.608Z,2.6
2017-03-04T03:51:36.241Z,2.5
2017-03-04T03:51:54.870Z,2.5
2017-03-04T03:52:13.512Z,2.5
2017-03-04T03:52:32.149Z,2.4
2017-03-04T03:52:50.784Z,2.4
2017-03-04T03:53:09.419Z,2.4
2017-03-04T03:53:28.054Z,2.4
2017-03-04T03:53:46.688Z,2.3
2017-03-04T03:54:05.320Z,2.4
2017-03-04T03:54:23.963Z,2.4
2017-03-04T03:54:42.614Z,2.4
2017-03-04T03:55:01.247Z,2.4
2017-03-04T03:55:19.888Z,2.4
2017-03-04T03:55:38.556Z,2.4
2017-03-04T03:55:57.197Z,2.4
2017-03-04T03:56:15.845Z,2.6
2017-03-04T03:56:34.483Z,2.6
2017-03-04T03:56:53.116Z,2.7
2017-03-04T03:57:11.749Z,2.7
2017-03-04T03:57:30.401Z,2.7
2017-03-04T03:57:49.035Z,2.6
2017-03-04T03:58:07.699Z,2.6
2017-03-04T03:58:26.337Z,2.6
2017-03-04T03:58:44.977Z,2.6
2017-03-04T03:59:03.653Z,2.6
2017-03-04T03:59:22.289Z,2.6
2017-03-04T03:59:40.924Z,2.6
2017-03-04T03:59:59.559Z,2.6
2017-03-04T04:00:18.200Z,2.5
2017-03-04T04:00:36.835Z,2.5
2017-03-04T04:00:55.467Z,2.6
2017-03-04T04:01:14.105Z,2.6
2017-03-04T04:01:32.766Z,2.7
2017-03-04T04:01:51.425Z,2.7
2017-03-04T04:02:10.060Z,2.7
2017-03-04T04:02:28.692Z,2.7
2017-03-04T04:02:47.327Z,2.6
2017-03-04T04:03:05.977Z,2.6
2017-03-04T04:03:24.611Z,2.6
2017-03-04T04:03:43.244Z,2.6
2017-03-04T04:04:01.891Z,2.5
2017-03-04T04:04:20.532Z,2.5
2017-03-04T04:04:39.187Z,2.5
2017-03-04T04:04:57.846Z,2.5
2017-03-04T04:05:16.483Z,2.5
2017-03-04T04:05:35.118Z,2.5
2017-03-04T04:05:53.756Z,2.5
2017-03-04T04:06:12.398Z,2.6
2017-03-04T04:06:31.077Z,2.6
2017-03-04T04:06:49.710Z,2.5
2017-03-04T04:07:08.354Z,2.5
2017-03-04T04:07:26.999Z,2.6
2017-03-04T04:07:45.636Z,2.6
2017-03-04T04:08:04.282Z,2.6
2017-03-04T04:08:22.919Z,2.6
2017-03-04T04:08:41.555Z,2.6
2017-03-04T04:09:00.188Z,2.5
2017-03-04T04:09:18.819Z,2.5
2017-03-04T04:09:37.458Z,2.5
2017-03-04T04:09:56.125Z,2.5
2017-03-04T04:10:14.765Z,2.5
2017-03-04T04:10:33.407Z,2.4
2017-03-04T04:10:52.070Z,2.4
2017-03-04T04:11:10.702Z,2.5
2017-03-04T04:11:29.336Z,2.6
2017-03-04T04:11:47.971Z,2.7
2017-03-04T04:12:06.604Z,2.8
2017-03-04T04:12:25.268Z,2.9
2017-03-04T04:12:43.920Z,3
2017-03-04T04:13:02.591Z,3
2017-03-04T04:13:21.221Z,3
2017-03-04T04:13:39.854Z,3
2017-03-04T04:13:58.487Z,3
2017-03-04T04:14:17.125Z,3
2017-03-04T04:14:35.762Z,2.9
2017-03-04T04:14:54.395Z,2.9
2017-03-04T04:15:13.033Z,2.8
2017-03-04T04:15:31.671Z,2.9
2017-03-04T04:15:50.307Z,2.9
2017-03-04T04:16:08.945Z,3
2017-03-04T04:16:27.629Z,3
2017-03-04T04:16:46.266Z,2.9
2017-03-04T04:17:04.900Z,2.9
2017-03-04T04:17:23.549Z,2.8
2017-03-04T04:17:42.192Z,2.8
2017-03-04T04:18:00.838Z,2.8
2017-03-04T04:18:19.479Z,2.8